sensor_id;sensor_type;location;lat;lon;timestamp;pressure;altitude;pressure_sealevel;temperature;humidity
54822;BME280;41299;43.546;16.426;2022-08-01T00:00:22;101336.97;;;25.64;38.07
54822;BME280;41299;43.546;16.426;2022-08-01T00:02:48;101335.75;;;25.52;38.79
54822;BME280;41299;43.546;16.426;2022-08-01T00:05:13;101350.03;;;25.67;37.63
54822;BME280;41299;43.546;16.426;2022-08-01T00:07:39;101342.28;;;25.82;37.15
54822;BME280;41299;43.546;16.426;2022-08-01T00:10:08;101337.41;;;25.92;36.84
54822;BME280;41299;43.546;16.426;2022-08-01T00:12:34;101344.66;;;26.06;36.44
54822;BME280;41299;43.546;16.426;2022-08-01T00:15:00;101334.69;;;26.11;36.20
54822;BME280;41299;43.546;16.426;2022-08-01T00:17:25;101338.88;;;26.15;36.24
54822;BME280;41299;43.546;16.426;2022-08-01T00:19:50;101333.09;;;26.26;35.37
54822;BME280;41299;43.546;16.426;2022-08-01T00:22:16;101345.19;;;26.30;35.45
54822;BME280;41299;43.546;16.426;2022-08-01T00:24:41;101340.91;;;26.28;35.98
54822;BME280;41299;43.546;16.426;2022-08-01T00:27:07;101338.72;;;26.18;36.18
54822;BME280;41299;43.546;16.426;2022-08-01T00:29:32;101342.03;;;26.24;35.85
54822;BME280;41299;43.546;16.426;2022-08-01T00:31:57;101343.31;;;26.15;36.58
54822;BME280;41299;43.546;16.426;2022-08-01T00:34:23;101339.34;;;26.06;36.74
54822;BME280;41299;43.546;16.426;2022-08-01T00:36:48;101331.88;;;26.14;35.92
54822;BME280;41299;43.546;16.426;2022-08-01T00:39:14;101345.56;;;26.23;35.98
54822;BME280;41299;43.546;16.426;2022-08-01T00:41:39;101342.53;;;26.30;35.62
54822;BME280;41299;43.546;16.426;2022-08-01T00:44:05;101338.38;;;26.26;35.62
54822;BME280;41299;43.546;16.426;2022-08-01T00:46:31;101341.78;;;26.28;35.47
54822;BME280;41299;43.546;16.426;2022-08-01T00:48:59;101338.88;;;26.33;35.39
54822;BME280;41299;43.546;16.426;2022-08-01T00:51:25;101342.00;;;26.41;35.37
54822;BME280;41299;43.546;16.426;2022-08-01T00:53:51;101339.44;;;26.40;35.42
54822;BME280;41299;43.546;16.426;2022-08-01T00:56:19;101335.00;;;26.40;35.40
54822;BME280;41299;43.546;16.426;2022-08-01T00:58:44;101333.75;;;26.48;35.06
54822;BME280;41299;43.546;16.426;2022-08-01T01:01:10;101332.66;;;26.52;35.08
54822;BME280;41299;43.546;16.426;2022-08-01T01:03:35;101334.84;;;26.43;35.33
54822;BME280;41299;43.546;16.426;2022-08-01T01:08:37;101341.13;;;26.41;35.74
54822;BME280;41299;43.546;16.426;2022-08-01T01:11:10;101346.50;;;26.39;35.54
54822;BME280;41299;43.546;16.426;2022-08-01T01:13:43;101339.00;;;26.31;35.52
54822;BME280;41299;43.546;16.426;2022-08-01T01:16:13;101344.16;;;26.33;35.57
54822;BME280;41299;43.546;16.426;2022-08-01T01:18:51;101341.06;;;26.42;35.45
54822;BME280;41299;43.546;16.426;2022-08-01T01:26:52;101332.50;;;26.37;35.72
54822;BME280;41299;43.546;16.426;2022-08-01T01:29:29;101333.09;;;26.26;35.83
54822;BME280;41299;43.546;16.426;2022-08-01T01:32:12;101342.66;;;26.29;36.02
54822;BME280;41299;43.546;16.426;2022-08-01T01:34:43;101340.06;;;26.27;35.82
54822;BME280;41299;43.546;16.426;2022-08-01T01:37:12;101341.38;;;26.36;35.11
54822;BME280;41299;43.546;16.426;2022-08-01T01:39:41;101341.63;;;26.31;35.84
54822;BME280;41299;43.546;16.426;2022-08-01T01:42:07;101347.75;;;26.32;35.80
54822;BME280;41299;43.546;16.426;2022-08-01T01:44:33;101342.06;;;26.22;36.59
54822;BME280;41299;43.546;16.426;2022-08-01T01:47:00;101346.47;;;26.22;36.03
54822;BME280;41299;43.546;16.426;2022-08-01T01:49:27;101340.88;;;26.10;36.86
54822;BME280;41299;43.546;16.426;2022-08-01T01:51:56;101348.06;;;26.08;36.86
54822;BME280;41299;43.546;16.426;2022-08-01T01:54:29;101346.66;;;26.01;37.66
54822;BME280;41299;43.546;16.426;2022-08-01T01:56:58;101346.97;;;25.95;37.60
54822;BME280;41299;43.546;16.426;2022-08-01T01:59:27;101348.13;;;25.89;38.07
54822;BME280;41299;43.546;16.426;2022-08-01T02:01:55;101346.72;;;25.82;38.40
54822;BME280;41299;43.546;16.426;2022-08-01T02:04:23;101346.81;;;25.61;38.06
54822;BME280;41299;43.546;16.426;2022-08-01T02:06:50;101350.91;;;25.49;38.34
54822;BME280;41299;43.546;16.426;2022-08-01T02:09:18;101353.38;;;25.52;38.24
54822;BME280;41299;43.546;16.426;2022-08-01T02:11:46;101352.03;;;25.43;39.63
54822;BME280;41299;43.546;16.426;2022-08-01T02:14:13;101354.75;;;25.42;38.56
54822;BME280;41299;43.546;16.426;2022-08-01T02:16:41;101350.84;;;25.31;39.17
54822;BME280;41299;43.546;16.426;2022-08-01T02:19:08;101354.25;;;25.33;39.09
54822;BME280;41299;43.546;16.426;2022-08-01T02:22:05;101356.63;;;25.20;39.08
54822;BME280;41299;43.546;16.426;2022-08-01T02:24:48;101354.22;;;25.16;39.74
54822;BME280;41299;43.546;16.426;2022-08-01T02:27:17;101346.28;;;25.16;39.45
54822;BME280;41299;43.546;16.426;2022-08-01T02:29:59;101348.13;;;25.13;39.28
54822;BME280;41299;43.546;16.426;2022-08-01T02:32:39;101350.00;;;25.11;39.26
54822;BME280;41299;43.546;16.426;2022-08-01T02:35:12;101344.66;;;25.13;39.39
54822;BME280;41299;43.546;16.426;2022-08-01T02:37:38;101339.50;;;25.10;39.24
54822;BME280;41299;43.546;16.426;2022-08-01T02:40:05;101340.59;;;25.06;39.94
54822;BME280;41299;43.546;16.426;2022-08-01T02:42:34;101342.22;;;25.08;39.43
54822;BME280;41299;43.546;16.426;2022-08-01T02:45:04;101343.72;;;25.14;39.33
54822;BME280;41299;43.546;16.426;2022-08-01T02:47:31;101341.06;;;25.14;39.45
54822;BME280;41299;43.546;16.426;2022-08-01T02:49:59;101350.63;;;25.17;39.43
54822;BME280;41299;43.546;16.426;2022-08-01T02:52:27;101347.47;;;25.27;39.29
54822;BME280;41299;43.546;16.426;2022-08-01T02:54:55;101345.94;;;25.23;39.20
54822;BME280;41299;43.546;16.426;2022-08-01T02:57:23;101341.66;;;25.21;39.66
54822;BME280;41299;43.546;16.426;2022-08-01T02:59:49;101343.34;;;25.22;39.53
54822;BME280;41299;43.546;16.426;2022-08-01T03:02:16;101350.69;;;25.15;39.89
54822;BME280;41299;43.546;16.426;2022-08-01T03:04:42;101345.78;;;25.07;40.02
54822;BME280;41299;43.546;16.426;2022-08-01T03:07:09;101343.34;;;25.03;40.47
54822;BME280;41299;43.546;16.426;2022-08-01T03:09:39;101346.50;;;25.11;40.08
54822;BME280;41299;43.546;16.426;2022-08-01T03:12:20;101340.22;;;25.13;40.09
54822;BME280;41299;43.546;16.426;2022-08-01T03:14:51;101344.88;;;25.08;40.27
54822;BME280;41299;43.546;16.426;2022-08-01T03:17:19;101339.22;;;25.16;40.02
54822;BME280;41299;43.546;16.426;2022-08-01T03:19:46;101349.16;;;25.11;40.15
54822;BME280;41299;43.546;16.426;2022-08-01T03:22:13;101337.94;;;25.06;40.18
54822;BME280;41299;43.546;16.426;2022-08-01T03:24:41;101335.38;;;25.04;40.63
54822;BME280;41299;43.546;16.426;2022-08-01T03:27:08;101342.66;;;24.99;40.71
54822;BME280;41299;43.546;16.426;2022-08-01T03:29:34;101339.34;;;24.94;41.23
54822;BME280;41299;43.546;16.426;2022-08-01T03:32:01;101349.53;;;24.82;42.12
54822;BME280;41299;43.546;16.426;2022-08-01T03:34:28;101341.50;;;24.85;41.33
54822;BME280;41299;43.546;16.426;2022-08-01T03:37:06;101338.59;;;24.92;41.08
54822;BME280;41299;43.546;16.426;2022-08-01T03:39:36;101337.38;;;24.99;40.66
54822;BME280;41299;43.546;16.426;2022-08-01T03:42:08;101329.50;;;24.97;40.54
54822;BME280;41299;43.546;16.426;2022-08-01T03:44:35;101334.50;;;25.04;40.36
54822;BME280;41299;43.546;16.426;2022-08-01T03:47:06;101331.09;;;25.21;39.48
54822;BME280;41299;43.546;16.426;2022-08-01T03:49:37;101331.16;;;25.19;42.46
54822;BME280;41299;43.546;16.426;2022-08-01T03:52:04;101330.44;;;25.16;40.54
54822;BME280;41299;43.546;16.426;2022-08-01T03:54:35;101326.09;;;25.15;40.25
54822;BME280;41299;43.546;16.426;2022-08-01T03:57:01;101333.22;;;25.12;41.18
54822;BME280;41299;43.546;16.426;2022-08-01T03:59:29;101336.03;;;25.09;40.91
54822;BME280;41299;43.546;16.426;2022-08-01T04:01:55;101332.50;;;25.09;41.26
54822;BME280;41299;43.546;16.426;2022-08-01T04:04:21;101325.41;;;25.11;40.55
54822;BME280;41299;43.546;16.426;2022-08-01T04:06:47;101322.75;;;25.11;40.65
54822;BME280;41299;43.546;16.426;2022-08-01T04:09:16;101334.50;;;25.04;42.19
54822;BME280;41299;43.546;16.426;2022-08-01T04:11:41;101338.88;;;24.85;42.96
54822;BME280;41299;43.546;16.426;2022-08-01T04:14:07;101341.16;;;24.72;45.53
54822;BME280;41299;43.546;16.426;2022-08-01T04:16:33;101343.41;;;24.61;50.44
54822;BME280;41299;43.546;16.426;2022-08-01T04:18:58;101344.94;;;24.46;55.00
54822;BME280;41299;43.546;16.426;2022-08-01T04:21:25;101354.84;;;24.41;60.95
54822;BME280;41299;43.546;16.426;2022-08-01T04:23:59;101355.81;;;24.38;60.97
54822;BME280;41299;43.546;16.426;2022-08-01T04:26:26;101340.78;;;24.40;59.95
54822;BME280;41299;43.546;16.426;2022-08-01T04:28:54;101355.34;;;24.49;58.21
54822;BME280;41299;43.546;16.426;2022-08-01T04:31:21;101353.75;;;24.45;65.25
54822;BME280;41299;43.546;16.426;2022-08-01T04:33:49;101352.31;;;24.38;63.18
54822;BME280;41299;43.546;16.426;2022-08-01T04:36:19;101355.16;;;24.33;60.54
54822;BME280;41299;43.546;16.426;2022-08-01T04:38:49;101357.97;;;24.49;50.86
54822;BME280;41299;43.546;16.426;2022-08-01T04:41:17;101349.97;;;24.52;50.58
54822;BME280;41299;43.546;16.426;2022-08-01T04:43:43;101357.38;;;24.63;46.46
54822;BME280;41299;43.546;16.426;2022-08-01T04:46:09;101351.06;;;24.67;46.38
54822;BME280;41299;43.546;16.426;2022-08-01T04:48:37;101359.69;;;24.71;46.58
54822;BME280;41299;43.546;16.426;2022-08-01T04:51:04;101347.16;;;24.76;44.50
54822;BME280;41299;43.546;16.426;2022-08-01T04:53:29;101360.03;;;24.84;45.13
54822;BME280;41299;43.546;16.426;2022-08-01T04:55:57;101355.56;;;25.05;43.13
54822;BME280;41299;43.546;16.426;2022-08-01T04:58:23;101356.19;;;25.10;44.09
54822;BME280;41299;43.546;16.426;2022-08-01T05:00:49;101369.47;;;25.09;43.70
54822;BME280;41299;43.546;16.426;2022-08-01T05:03:14;101369.09;;;25.17;43.55
54822;BME280;41299;43.546;16.426;2022-08-01T05:05:40;101365.53;;;25.18;44.08
54822;BME280;41299;43.546;16.426;2022-08-01T05:08:05;101370.88;;;25.16;44.22
54822;BME280;41299;43.546;16.426;2022-08-01T05:10:31;101366.47;;;25.17;44.33
54822;BME280;41299;43.546;16.426;2022-08-01T05:12:57;101375.16;;;25.19;44.12
54822;BME280;41299;43.546;16.426;2022-08-01T05:15:23;101375.16;;;25.19;43.88
54822;BME280;41299;43.546;16.426;2022-08-01T05:17:48;101375.97;;;25.21;43.84
54822;BME280;41299;43.546;16.426;2022-08-01T05:20:13;101370.41;;;25.27;43.28
54822;BME280;41299;43.546;16.426;2022-08-01T05:22:39;101370.34;;;25.29;44.11
54822;BME280;41299;43.546;16.426;2022-08-01T05:25:05;101372.09;;;25.28;43.92
54822;BME280;41299;43.546;16.426;2022-08-01T05:27:31;101363.06;;;25.34;43.00
54822;BME280;41299;43.546;16.426;2022-08-01T05:29:57;101363.75;;;25.37;43.08
54822;BME280;41299;43.546;16.426;2022-08-01T05:32:22;101368.03;;;25.40;42.80
54822;BME280;41299;43.546;16.426;2022-08-01T05:34:48;101365.88;;;25.48;42.77
54822;BME280;41299;43.546;16.426;2022-08-01T05:37:13;101364.94;;;25.49;43.31
54822;BME280;41299;43.546;16.426;2022-08-01T05:39:39;101368.28;;;25.53;43.26
54822;BME280;41299;43.546;16.426;2022-08-01T05:42:04;101356.56;;;25.60;44.80
54822;BME280;41299;43.546;16.426;2022-08-01T05:44:30;101363.19;;;25.69;43.77
54822;BME280;41299;43.546;16.426;2022-08-01T05:46:55;101362.66;;;25.98;40.36
54822;BME280;41299;43.546;16.426;2022-08-01T05:49:20;101356.38;;;26.00;42.14
54822;BME280;41299;43.546;16.426;2022-08-01T05:51:46;101359.69;;;26.04;42.69
54822;BME280;41299;43.546;16.426;2022-08-01T05:54:11;101352.88;;;26.17;39.56
54822;BME280;41299;43.546;16.426;2022-08-01T05:56:37;101349.94;;;26.75;40.48
54822;BME280;41299;43.546;16.426;2022-08-01T05:59:02;101352.47;;;28.65;37.55
54822;BME280;41299;43.546;16.426;2022-08-01T06:01:28;101351.63;;;30.31;34.66
54822;BME280;41299;43.546;16.426;2022-08-01T06:03:53;101342.06;;;31.43;31.58
54822;BME280;41299;43.546;16.426;2022-08-01T06:06:20;101345.84;;;32.12;31.23
54822;BME280;41299;43.546;16.426;2022-08-01T06:08:45;101342.81;;;32.05;33.29
54822;BME280;41299;43.546;16.426;2022-08-01T06:11:11;101345.34;;;31.46;33.63
54822;BME280;41299;43.546;16.426;2022-08-01T06:13:36;101341.81;;;31.34;31.09
54822;BME280;41299;43.546;16.426;2022-08-01T06:16:01;101335.97;;;30.79;32.28
54822;BME280;41299;43.546;16.426;2022-08-01T06:18:27;101341.28;;;30.14;33.01
54822;BME280;41299;43.546;16.426;2022-08-01T06:20:52;101345.69;;;29.87;35.79
54822;BME280;41299;43.546;16.426;2022-08-01T06:23:20;101338.84;;;29.70;33.83
54822;BME280;41299;43.546;16.426;2022-08-01T06:25:45;101338.06;;;29.55;35.24
54822;BME280;41299;43.546;16.426;2022-08-01T06:28:11;101349.53;;;29.56;34.63
54822;BME280;41299;43.546;16.426;2022-08-01T06:30:36;101346.44;;;29.49;35.54
54822;BME280;41299;43.546;16.426;2022-08-01T06:33:02;101349.44;;;29.43;33.62
54822;BME280;41299;43.546;16.426;2022-08-01T06:35:28;101346.25;;;29.37;34.43
54822;BME280;41299;43.546;16.426;2022-08-01T06:37:55;101348.59;;;29.15;34.80
54822;BME280;41299;43.546;16.426;2022-08-01T06:40:21;101352.88;;;29.03;33.78
54822;BME280;41299;43.546;16.426;2022-08-01T06:42:46;101354.56;;;29.18;32.06
54822;BME280;41299;43.546;16.426;2022-08-01T06:45:12;101354.06;;;29.26;32.64
54822;BME280;41299;43.546;16.426;2022-08-01T06:47:39;101351.19;;;29.29;32.37
54822;BME280;41299;43.546;16.426;2022-08-01T06:50:06;101346.88;;;29.13;33.05
54822;BME280;41299;43.546;16.426;2022-08-01T06:52:32;101371.22;;;29.35;33.22
54822;BME280;41299;43.546;16.426;2022-08-01T06:54:58;101362.38;;;29.49;33.33
54822;BME280;41299;43.546;16.426;2022-08-01T06:57:24;101343.81;;;29.62;32.72
54822;BME280;41299;43.546;16.426;2022-08-01T06:59:49;101347.88;;;29.40;31.84
54822;BME280;41299;43.546;16.426;2022-08-01T07:02:15;101352.91;;;29.30;31.55
54822;BME280;41299;43.546;16.426;2022-08-01T07:04:40;101346.44;;;29.49;32.51
54822;BME280;41299;43.546;16.426;2022-08-01T07:07:05;101352.22;;;29.41;30.64
54822;BME280;41299;43.546;16.426;2022-08-01T07:09:31;101349.16;;;29.20;31.47
54822;BME280;41299;43.546;16.426;2022-08-01T07:11:56;101354.34;;;29.21;31.68
54822;BME280;41299;43.546;16.426;2022-08-01T07:14:23;101331.53;;;29.46;31.48
54822;BME280;41299;43.546;16.426;2022-08-01T07:16:49;101342.94;;;29.34;30.52
54822;BME280;41299;43.546;16.426;2022-08-01T07:19:15;101349.34;;;29.17;31.20
54822;BME280;41299;43.546;16.426;2022-08-01T07:21:41;101338.47;;;29.34;30.81
54822;BME280;41299;43.546;16.426;2022-08-01T07:24:14;101327.00;;;29.34;31.86
54822;BME280;41299;43.546;16.426;2022-08-01T07:26:44;101324.78;;;29.40;31.13
54822;BME280;41299;43.546;16.426;2022-08-01T07:29:09;101351.75;;;29.49;31.18
54822;BME280;41299;43.546;16.426;2022-08-01T07:31:35;101333.50;;;29.57;30.75
54822;BME280;41299;43.546;16.426;2022-08-01T07:34:00;101329.69;;;29.61;30.28
54822;BME280;41299;43.546;16.426;2022-08-01T07:36:26;101319.09;;;29.74;32.06
54822;BME280;41299;43.546;16.426;2022-08-01T07:38:51;101330.25;;;29.79;30.39
54822;BME280;41299;43.546;16.426;2022-08-01T07:41:17;101324.28;;;29.63;31.89
54822;BME280;41299;43.546;16.426;2022-08-01T07:43:42;101329.72;;;29.74;32.55
54822;BME280;41299;43.546;16.426;2022-08-01T07:46:07;101331.09;;;29.80;31.57
54822;BME280;41299;43.546;16.426;2022-08-01T07:48:33;101319.59;;;29.66;31.00
54822;BME280;41299;43.546;16.426;2022-08-01T07:50:58;101326.41;;;29.71;31.49
54822;BME280;41299;43.546;16.426;2022-08-01T07:53:24;101313.75;;;29.61;31.17
54822;BME280;41299;43.546;16.426;2022-08-01T07:55:50;101318.47;;;29.84;31.21
54822;BME280;41299;43.546;16.426;2022-08-01T07:58:16;101317.00;;;30.05;30.61
54822;BME280;41299;43.546;16.426;2022-08-01T08:00:41;101329.16;;;30.23;33.21
54822;BME280;41299;43.546;16.426;2022-08-01T08:03:07;101319.19;;;30.26;32.27
54822;BME280;41299;43.546;16.426;2022-08-01T08:05:32;101322.56;;;30.28;32.59
54822;BME280;41299;43.546;16.426;2022-08-01T08:08:09;101335.34;;;30.36;34.16
54822;BME280;41299;43.546;16.426;2022-08-01T08:10:35;101325.13;;;30.30;32.59
54822;BME280;41299;43.546;16.426;2022-08-01T08:13:02;101307.56;;;30.14;31.47
54822;BME280;41299;43.546;16.426;2022-08-01T08:15:28;101313.19;;;30.36;30.94
54822;BME280;41299;43.546;16.426;2022-08-01T08:17:53;101328.50;;;30.06;30.10
54822;BME280;41299;43.546;16.426;2022-08-01T08:20:19;101324.03;;;30.45;30.34
54822;BME280;41299;43.546;16.426;2022-08-01T08:22:46;101330.56;;;30.54;30.03
54822;BME280;41299;43.546;16.426;2022-08-01T08:25:11;101333.72;;;30.72;29.41
54822;BME280;41299;43.546;16.426;2022-08-01T08:27:37;101311.59;;;30.46;29.12
54822;BME280;41299;43.546;16.426;2022-08-01T08:30:04;101318.84;;;30.44;29.21
54822;BME280;41299;43.546;16.426;2022-08-01T08:32:32;101311.16;;;30.52;29.24
54822;BME280;41299;43.546;16.426;2022-08-01T08:34:58;101315.75;;;30.50;29.60
54822;BME280;41299;43.546;16.426;2022-08-01T08:37:23;101311.59;;;30.33;29.42
54822;BME280;41299;43.546;16.426;2022-08-01T08:39:48;101313.44;;;30.32;29.79
54822;BME280;41299;43.546;16.426;2022-08-01T08:42:14;101315.59;;;30.65;30.20
54822;BME280;41299;43.546;16.426;2022-08-01T08:44:40;101312.75;;;30.81;29.45
54822;BME280;41299;43.546;16.426;2022-08-01T08:47:07;101302.13;;;31.05;29.87
54822;BME280;41299;43.546;16.426;2022-08-01T08:49:33;101301.75;;;31.23;30.66
54822;BME280;41299;43.546;16.426;2022-08-01T08:52:01;101299.78;;;31.38;29.99
54822;BME280;41299;43.546;16.426;2022-08-01T08:54:27;101289.69;;;31.55;29.73
54822;BME280;41299;43.546;16.426;2022-08-01T08:56:54;101295.50;;;31.71;29.12
54822;BME280;41299;43.546;16.426;2022-08-01T08:59:20;101308.69;;;31.86;28.74
54822;BME280;41299;43.546;16.426;2022-08-01T09:01:47;101298.25;;;31.94;29.19
54822;BME280;41299;43.546;16.426;2022-08-01T09:04:12;101297.44;;;31.94;29.52
54822;BME280;41299;43.546;16.426;2022-08-01T09:06:38;101300.22;;;32.03;29.35
54822;BME280;41299;43.546;16.426;2022-08-01T09:09:05;101306.03;;;31.97;28.07
54822;BME280;41299;43.546;16.426;2022-08-01T09:11:31;101291.44;;;31.43;29.91
54822;BME280;41299;43.546;16.426;2022-08-01T09:14:13;101305.97;;;31.25;32.62
54822;BME280;41299;43.546;16.426;2022-08-01T09:16:44;101303.06;;;31.04;30.77
54822;BME280;41299;43.546;16.426;2022-08-01T09:19:20;101307.38;;;30.94;31.90
54822;BME280;41299;43.546;16.426;2022-08-01T09:21:57;101311.31;;;31.25;32.45
54822;BME280;41299;43.546;16.426;2022-08-01T09:24:25;101315.19;;;31.21;35.18
54822;BME280;41299;43.546;16.426;2022-08-01T09:26:51;101310.06;;;31.18;34.87
54822;BME280;41299;43.546;16.426;2022-08-01T09:29:27;101320.00;;;31.16;37.67
54822;BME280;41299;43.546;16.426;2022-08-01T09:31:53;101316.75;;;30.99;44.13
54822;BME280;41299;43.546;16.426;2022-08-01T09:34:29;101311.13;;;31.16;45.63
54822;BME280;41299;43.546;16.426;2022-08-01T09:37:00;101309.59;;;31.37;46.45
54822;BME280;41299;43.546;16.426;2022-08-01T09:39:28;101305.97;;;31.25;44.11
54822;BME280;41299;43.546;16.426;2022-08-01T09:41:56;101304.59;;;31.33;45.89
54822;BME280;41299;43.546;16.426;2022-08-01T09:44:42;101310.09;;;31.05;42.70
54822;BME280;41299;43.546;16.426;2022-08-01T09:47:08;101307.13;;;31.10;43.33
54822;BME280;41299;43.546;16.426;2022-08-01T09:49:35;101311.34;;;30.88;47.60
54822;BME280;41299;43.546;16.426;2022-08-01T09:52:16;101300.47;;;31.16;49.70
54822;BME280;41299;43.546;16.426;2022-08-01T09:54:44;101299.16;;;31.34;48.64
54822;BME280;41299;43.546;16.426;2022-08-01T09:57:18;101307.28;;;31.20;54.22
54822;BME280;41299;43.546;16.426;2022-08-01T09:59:51;101308.72;;;31.12;53.76
54822;BME280;41299;43.546;16.426;2022-08-01T10:02:34;101301.84;;;30.97;51.10
54822;BME280;41299;43.546;16.426;2022-08-01T10:05:01;101294.41;;;30.89;58.02
54822;BME280;41299;43.546;16.426;2022-08-01T10:07:27;101283.53;;;30.92;54.11
54822;BME280;41299;43.546;16.426;2022-08-01T10:09:53;101282.56;;;30.93;51.67
54822;BME280;41299;43.546;16.426;2022-08-01T10:12:21;101283.34;;;30.82;50.09
54822;BME280;41299;43.546;16.426;2022-08-01T10:14:48;101283.59;;;31.04;50.50
54822;BME280;41299;43.546;16.426;2022-08-01T10:17:20;101281.88;;;31.03;47.76
54822;BME280;41299;43.546;16.426;2022-08-01T10:19:46;101282.00;;;31.01;49.43
54822;BME280;41299;43.546;16.426;2022-08-01T10:22:13;101286.78;;;31.09;55.19
54822;BME280;41299;43.546;16.426;2022-08-01T10:24:43;101284.28;;;30.94;54.95
54822;BME280;41299;43.546;16.426;2022-08-01T10:27:10;101276.06;;;30.97;48.09
54822;BME280;41299;43.546;16.426;2022-08-01T10:29:57;101272.72;;;31.07;52.86
54822;BME280;41299;43.546;16.426;2022-08-01T10:32:26;101282.97;;;31.00;51.14
54822;BME280;41299;43.546;16.426;2022-08-01T10:34:52;101282.97;;;31.24;49.48
54822;BME280;41299;43.546;16.426;2022-08-01T10:37:18;101273.97;;;31.38;51.11
54822;BME280;41299;43.546;16.426;2022-08-01T10:39:43;101284.47;;;31.29;51.20
54822;BME280;41299;43.546;16.426;2022-08-01T10:42:11;101283.41;;;31.31;46.00
54822;BME280;41299;43.546;16.426;2022-08-01T10:44:38;101279.78;;;31.19;45.41
54822;BME280;41299;43.546;16.426;2022-08-01T10:47:11;101277.13;;;31.19;46.46
54822;BME280;41299;43.546;16.426;2022-08-01T10:49:47;101272.53;;;31.34;49.82
54822;BME280;41299;43.546;16.426;2022-08-01T10:52:16;101264.25;;;31.13;50.63
54822;BME280;41299;43.546;16.426;2022-08-01T10:54:41;101267.69;;;31.15;49.38
54822;BME280;41299;43.546;16.426;2022-08-01T10:57:07;101264.44;;;31.47;44.20
54822;BME280;41299;43.546;16.426;2022-08-01T10:59:33;101268.69;;;31.50;40.02
54822;BME280;41299;43.546;16.426;2022-08-01T11:02:03;101255.97;;;31.53;36.12
54822;BME280;41299;43.546;16.426;2022-08-01T11:04:51;101252.59;;;31.51;41.59
54822;BME280;41299;43.546;16.426;2022-08-01T11:07:34;101250.41;;;31.57;41.05
54822;BME280;41299;43.546;16.426;2022-08-01T11:10:16;101239.75;;;31.57;43.76
54822;BME280;41299;43.546;16.426;2022-08-01T11:12:44;101242.84;;;31.39;52.01
54822;BME280;41299;43.546;16.426;2022-08-01T11:17:45;101231.03;;;31.55;50.77
54822;BME280;41299;43.546;16.426;2022-08-01T11:30:41;101226.19;;;31.60;50.51
54822;BME280;41299;43.546;16.426;2022-08-01T11:33:07;101218.66;;;31.53;45.96
54822;BME280;41299;43.546;16.426;2022-08-01T11:35:36;101210.13;;;31.37;52.68
54822;BME280;41299;43.546;16.426;2022-08-01T11:38:24;101206.31;;;31.52;49.78
54822;BME280;41299;43.546;16.426;2022-08-01T11:43:54;101205.34;;;31.65;45.52
54822;BME280;41299;43.546;16.426;2022-08-01T11:54:34;101222.06;;;30.58;75.72
54822;BME280;41299;43.546;16.426;2022-08-01T11:57:00;101216.44;;;30.87;65.98
54822;BME280;41299;43.546;16.426;2022-08-01T11:59:27;101220.28;;;30.83;66.93
54822;BME280;41299;43.546;16.426;2022-08-01T12:01:53;101211.34;;;30.84;63.21
54822;BME280;41299;43.546;16.426;2022-08-01T12:04:19;101197.94;;;30.85;64.53
54822;BME280;41299;43.546;16.426;2022-08-01T12:06:44;101199.63;;;30.86;69.81
54822;BME280;41299;43.546;16.426;2022-08-01T12:09:21;101210.81;;;30.79;53.72
54822;BME280;41299;43.546;16.426;2022-08-01T12:11:47;101212.25;;;30.71;50.59
54822;BME280;41299;43.546;16.426;2022-08-01T12:14:18;101212.03;;;30.75;51.82
54822;BME280;41299;43.546;16.426;2022-08-01T12:16:50;101199.41;;;30.90;47.81
54822;BME280;41299;43.546;16.426;2022-08-01T12:19:24;101197.19;;;31.19;49.04
54822;BME280;41299;43.546;16.426;2022-08-01T12:22:10;101212.69;;;31.38;52.16
54822;BME280;41299;43.546;16.426;2022-08-01T12:24:37;101204.56;;;31.40;62.45
54822;BME280;41299;43.546;16.426;2022-08-01T12:27:04;101205.06;;;31.34;70.83
54822;BME280;41299;43.546;16.426;2022-08-01T12:29:38;101209.19;;;31.13;79.99
54822;BME280;41299;43.546;16.426;2022-08-01T12:32:20;101211.28;;;30.72;77.61
54822;BME280;41299;43.546;16.426;2022-08-01T12:34:46;101206.47;;;30.78;70.85
54822;BME280;41299;43.546;16.426;2022-08-01T12:37:11;101199.50;;;31.12;61.28
54822;BME280;41299;43.546;16.426;2022-08-01T12:39:38;101197.16;;;31.32;55.67
54822;BME280;41299;43.546;16.426;2022-08-01T12:42:06;101203.03;;;31.24;55.97
54822;BME280;41299;43.546;16.426;2022-08-01T12:44:33;101199.09;;;31.06;58.07
54822;BME280;41299;43.546;16.426;2022-08-01T12:46:59;101186.81;;;30.92;63.51
54822;BME280;41299;43.546;16.426;2022-08-01T12:49:26;101184.34;;;30.77;64.60
54822;BME280;41299;43.546;16.426;2022-08-01T12:51:52;101190.44;;;30.91;63.57
54822;BME280;41299;43.546;16.426;2022-08-01T12:54:18;101187.72;;;30.79;65.92
54822;BME280;41299;43.546;16.426;2022-08-01T12:56:44;101191.06;;;30.70;70.48
54822;BME280;41299;43.546;16.426;2022-08-01T12:59:21;101178.22;;;30.88;77.29
54822;BME280;41299;43.546;16.426;2022-08-01T13:01:48;101176.16;;;31.16;78.21
54822;BME280;41299;43.546;16.426;2022-08-01T13:04:13;101179.97;;;31.36;77.39
54822;BME280;41299;43.546;16.426;2022-08-01T13:06:39;101179.91;;;31.25;74.38
54822;BME280;41299;43.546;16.426;2022-08-01T13:09:06;101178.81;;;30.92;74.83
54822;BME280;41299;43.546;16.426;2022-08-01T13:11:31;101185.22;;;31.13;74.19
54822;BME280;41299;43.546;16.426;2022-08-01T13:13:57;101179.53;;;31.18;77.77
54822;BME280;41299;43.546;16.426;2022-08-01T13:16:25;101182.91;;;31.09;76.85